createdAt,value
2018-10-17T00:00:55.942Z,0.00
2018-10-17T00:02:48.786Z,0.00
2018-10-17T00:03:48.749Z,0.00
2018-10-17T00:05:41.642Z,0.00
2018-10-17T00:06:41.615Z,0.00
2018-10-17T00:08:34.503Z,0.00
2018-10-17T00:09:34.474Z,0.00
2018-10-17T00:11:27.375Z,0.00
2018-10-17T00:12:27.346Z,0.00
2018-10-17T00:14:20.302Z,0.00
2018-10-17T00:15:20.208Z,0.00
2018-10-17T00:17:13.135Z,0.00
2018-10-17T00:18:13.077Z,0.00
2018-10-17T00:20:06.469Z,0.00
2018-10-17T00:21:06.437Z,0.00
2018-10-17T00:22:59.858Z,0.00
2018-10-17T00:23:59.789Z,0.00
2018-10-17T00:25:52.676Z,0.00
2018-10-17T00:26:52.650Z,0.00
2018-10-17T00:28:45.553Z,0.00
2018-10-17T00:29:45.525Z,0.00
2018-10-17T00:31:38.980Z,0.00
2018-10-17T00:32:38.886Z,0.00
2018-10-17T00:34:31.774Z,0.00
2018-10-17T00:35:31.750Z,0.00
2018-10-17T00:37:24.635Z,0.00
2018-10-17T00:38:24.622Z,0.00
2018-10-17T00:40:17.536Z,0.00
2018-10-17T00:41:17.558Z,0.00
2018-10-17T00:43:10.428Z,0.00
2018-10-17T00:44:10.343Z,0.00
2018-10-17T00:46:03.726Z,0.00
2018-10-17T00:47:03.765Z,0.00
2018-10-17T00:48:56.588Z,0.00
2018-10-17T00:49:56.565Z,0.00
2018-10-17T00:51:49.944Z,0.00
2018-10-17T00:52:49.966Z,0.00
2018-10-17T00:54:42.808Z,0.00
2018-10-17T00:55:42.783Z,0.00
2018-10-17T00:57:36.158Z,0.00
2018-10-17T00:58:36.140Z,0.00
2018-10-17T01:00:29.022Z,0.00
2018-10-17T01:01:29.006Z,0.00
2018-10-17T01:03:22.378Z,0.00
2018-10-17T01:04:22.366Z,0.00
2018-10-17T01:06:15.241Z,0.00
2018-10-17T01:07:15.248Z,0.00
2018-10-17T01:09:08.112Z,0.00
2018-10-17T01:10:08.082Z,0.00
2018-10-17T01:12:01.457Z,0.00
2018-10-17T01:13:01.478Z,0.00
2018-10-17T01:14:54.822Z,0.00
2018-10-17T01:15:54.796Z,0.00
2018-10-17T01:17:48.193Z,0.00
2018-10-17T01:18:48.145Z,0.00
2018-10-17T01:20:41.529Z,0.00
2018-10-17T01:21:41.504Z,0.00
2018-10-17T01:23:34.384Z,0.00
2018-10-17T01:24:34.363Z,0.00
2018-10-17T01:26:27.763Z,0.00
2018-10-17T01:27:27.738Z,0.00
2018-10-17T01:29:20.620Z,0.00
2018-10-17T01:30:20.595Z,0.00
2018-10-17T01:32:13.491Z,0.00
2018-10-17T01:33:13.457Z,0.00
2018-10-17T01:35:06.891Z,0.00
2018-10-17T01:36:06.814Z,0.00
2018-10-17T01:37:59.768Z,0.00
2018-10-17T01:38:59.694Z,0.00
2018-10-17T01:40:52.656Z,0.00
2018-10-17T01:41:52.535Z,0.00
2018-10-17T01:43:45.433Z,0.00
2018-10-17T01:44:45.406Z,0.00
2018-10-17T01:46:38.304Z,0.00
2018-10-17T01:47:38.274Z,0.00
2018-10-17T01:49:31.160Z,0.00
2018-10-17T01:50:31.126Z,0.00
2018-10-17T01:52:24.021Z,0.00
2018-10-17T01:53:23.996Z,0.00
2018-10-17T01:55:16.884Z,0.00
2018-10-17T01:56:16.860Z,0.00
2018-10-17T01:58:10.244Z,0.00
2018-10-17T01:59:10.262Z,0.00
2018-10-17T02:01:03.268Z,0.00
2018-10-17T02:02:03.185Z,0.00
2018-10-17T02:03:56.082Z,0.00
2018-10-17T02:04:56.097Z,0.00
2018-10-17T02:06:49.439Z,0.00
2018-10-17T02:07:49.424Z,0.00
2018-10-17T02:09:42.789Z,0.00
2018-10-17T02:10:42.758Z,0.00
2018-10-17T02:12:35.641Z,0.00
2018-10-17T02:13:35.623Z,0.00
2018-10-17T02:15:28.507Z,0.00
2018-10-17T02:16:28.503Z,0.00
2018-10-17T02:18:21.381Z,0.00
2018-10-17T02:19:21.351Z,0.00
2018-10-17T02:21:14.240Z,0.00
2018-10-17T02:22:14.211Z,0.00
2018-10-17T02:24:07.093Z,0.00
2018-10-17T02:25:07.115Z,0.00
2018-10-17T02:27:00.460Z,0.00
2018-10-17T02:28:00.428Z,0.00
2018-10-17T02:29:53.351Z,0.00
2018-10-17T02:30:53.292Z,0.00
2018-10-17T02:32:46.181Z,0.00
2018-10-17T02:33:46.153Z,0.00
2018-10-17T02:35:39.533Z,0.00
2018-10-17T02:36:39.507Z,0.00
2018-10-17T02:38:33.537Z,0.00
2018-10-17T02:39:33.471Z,0.00
2018-10-17T02:41:27.393Z,0.00
2018-10-17T02:42:26.785Z,0.00
2018-10-17T02:44:19.666Z,0.00
2018-10-17T02:45:19.641Z,0.00
2018-10-17T02:47:12.544Z,0.00
2018-10-17T02:48:12.504Z,0.00
2018-10-17T02:50:05.400Z,0.00
2018-10-17T02:51:05.377Z,0.00
2018-10-17T02:52:58.786Z,0.00
2018-10-17T02:53:58.721Z,0.00
2018-10-17T02:55:51.644Z,0.00
2018-10-17T02:56:51.606Z,0.00
2018-10-17T02:58:44.499Z,0.00
2018-10-17T02:59:44.471Z,0.00
2018-10-17T03:01:37.855Z,0.00
2018-10-17T03:02:37.824Z,0.00
2018-10-17T03:04:31.217Z,0.00
2018-10-17T03:05:31.218Z,0.00
2018-10-17T03:07:24.571Z,0.00
2018-10-17T03:08:24.542Z,0.00
2018-10-17T03:10:17.449Z,0.00
2018-10-17T03:11:17.479Z,0.00
2018-10-17T03:13:10.349Z,0.00
2018-10-17T03:14:10.278Z,0.00
2018-10-17T03:16:03.166Z,0.00
2018-10-17T03:17:03.149Z,0.00
2018-10-17T03:18:56.037Z,0.00
2018-10-17T03:19:56.004Z,0.00
2018-10-17T03:21:48.906Z,0.00
2018-10-17T03:22:48.869Z,0.00
2018-10-17T03:24:42.253Z,0.00
2018-10-17T03:25:42.228Z,0.00
2018-10-17T03:27:35.103Z,0.00
2018-10-17T03:28:35.088Z,0.00
2018-10-17T03:30:28.462Z,0.00
2018-10-17T03:31:28.559Z,0.00
2018-10-17T03:33:21.430Z,0.00
2018-10-17T03:34:21.394Z,0.00
2018-10-17T03:36:15.349Z,0.00
2018-10-17T03:37:14.784Z,0.00
2018-10-17T03:39:08.152Z,0.00
2018-10-17T03:40:08.107Z,0.00
2018-10-17T03:42:00.994Z,0.00
2018-10-17T03:43:00.999Z,0.00
2018-10-17T03:44:54.352Z,0.00
2018-10-17T03:45:54.319Z,0.00
2018-10-17T03:47:47.705Z,0.00
2018-10-17T03:48:47.683Z,0.00
2018-10-17T03:50:40.574Z,0.00
2018-10-17T03:51:40.551Z,0.00
2018-10-17T03:53:33.437Z,0.00
2018-10-17T03:54:33.400Z,0.00
2018-10-17T03:56:27.388Z,0.00
2018-10-17T03:57:26.782Z,0.00
2018-10-17T03:59:19.869Z,0.00
2018-10-17T04:00:19.660Z,0.00
2018-10-17T04:02:12.547Z,0.00
2018-10-17T04:03:12.540Z,0.00
2018-10-17T04:05:05.467Z,0.00
2018-10-17T04:06:05.385Z,0.00
2018-10-17T04:07:58.276Z,0.00
2018-10-17T04:08:58.239Z,0.00
2018-10-17T04:10:51.135Z,0.00
2018-10-17T04:11:51.111Z,0.00
2018-10-17T04:13:44.489Z,0.00
2018-10-17T04:14:44.457Z,0.00
2018-10-17T04:16:37.839Z,0.00
2018-10-17T04:17:37.812Z,0.00
2018-10-17T04:19:30.707Z,0.00
2018-10-17T04:20:30.678Z,0.00
2018-10-17T04:22:24.154Z,0.00
2018-10-17T04:23:24.034Z,0.00
2018-10-17T04:25:16.938Z,0.00
2018-10-17T04:26:16.892Z,0.00
2018-10-17T04:28:10.275Z,0.00
2018-10-17T04:29:10.251Z,0.00
2018-10-17T04:31:03.209Z,0.00
2018-10-17T04:32:03.116Z,0.00
2018-10-17T04:33:56.494Z,0.00
2018-10-17T04:34:56.475Z,0.00
2018-10-17T04:36:49.847Z,0.00
2018-10-17T04:37:49.814Z,0.00
2018-10-17T04:39:43.277Z,0.00
2018-10-17T04:40:42.680Z,0.00
2018-10-17T04:42:36.644Z,0.00
2018-10-17T04:43:36.028Z,0.00
2018-10-17T04:45:29.414Z,0.00
2018-10-17T04:46:29.391Z,0.00
2018-10-17T04:48:22.769Z,0.00
2018-10-17T04:49:22.743Z,0.00
2018-10-17T04:51:16.120Z,0.00
2018-10-17T04:52:16.099Z,0.00
2018-10-17T04:54:08.977Z,0.00
2018-10-17T04:55:09.009Z,0.00
2018-10-17T04:57:02.335Z,0.00
2018-10-17T04:58:02.308Z,0.00
2018-10-17T04:59:55.686Z,0.00
2018-10-17T05:00:55.674Z,0.00
2018-10-17T05:02:49.046Z,0.00
2018-10-17T05:03:49.021Z,0.00
2018-10-17T05:05:42.399Z,0.00
2018-10-17T05:06:42.447Z,0.00
2018-10-17T05:08:35.264Z,0.00
2018-10-17T05:09:35.236Z,0.00
2018-10-17T05:11:28.618Z,0.00
2018-10-17T05:12:28.596Z,0.00
2018-10-17T05:14:21.471Z,0.00
2018-10-17T05:15:21.493Z,0.00
2018-10-17T05:17:14.460Z,0.00
2018-10-17T05:18:14.318Z,0.00
2018-10-17T05:20:07.203Z,0.00
2018-10-17T05:21:07.179Z,0.00
2018-10-17T05:23:00.129Z,0.00
2018-10-17T05:24:00.041Z,0.00
2018-10-17T05:25:53.001Z,0.00
2018-10-17T05:26:52.899Z,0.00
2018-10-17T05:28:46.365Z,0.00
2018-10-17T05:29:46.307Z,0.00
2018-10-17T05:31:39.633Z,0.00
2018-10-17T05:32:39.610Z,0.00
2018-10-17T05:34:32.499Z,0.00
2018-10-17T05:35:32.464Z,0.00
2018-10-17T05:37:25.379Z,0.00
2018-10-17T05:38:25.333Z,0.00
2018-10-17T05:40:18.708Z,0.00
2018-10-17T05:41:18.677Z,0.00
2018-10-17T05:43:11.578Z,0.00
2018-10-17T05:44:11.569Z,0.00
2018-10-17T05:46:04.425Z,0.00
2018-10-17T05:47:04.456Z,0.00
2018-10-17T05:48:57.299Z,0.00
2018-10-17T05:49:57.261Z,0.00
2018-10-17T05:51:50.194Z,5.63
2018-10-17T05:52:50.171Z,5.63
2018-10-17T05:54:43.069Z,5.63
2018-10-17T05:55:43.026Z,5.63
2018-10-17T05:57:36.402Z,5.63
2018-10-17T05:58:36.375Z,5.63
2018-10-17T06:00:29.262Z,5.63
2018-10-17T06:01:29.305Z,5.63
2018-10-17T06:03:22.628Z,5.63
2018-10-17T06:04:22.602Z,5.63
2018-10-17T06:06:15.487Z,11.25
2018-10-17T06:07:15.521Z,11.25
2018-10-17T06:09:08.344Z,11.25
2018-10-17T06:10:08.321Z,11.25
2018-10-17T06:12:01.212Z,16.88
2018-10-17T06:13:01.243Z,16.88
2018-10-17T06:14:54.569Z,16.88
2018-10-17T06:15:54.536Z,22.50
2018-10-17T06:17:47.937Z,22.50
2018-10-17T06:18:47.893Z,22.50
2018-10-17T06:20:40.785Z,22.50
2018-10-17T06:21:40.757Z,28.13
2018-10-17T06:23:34.139Z,28.13
2018-10-17T06:24:34.110Z,28.13
2018-10-17T06:26:27.491Z,28.13
2018-10-17T06:27:27.465Z,28.13
2018-10-17T06:29:20.358Z,28.13
2018-10-17T06:30:20.326Z,33.75
2018-10-17T06:32:13.722Z,33.75
2018-10-17T06:33:13.687Z,33.75
2018-10-17T06:35:07.101Z,33.75
2018-10-17T06:36:07.043Z,33.75
2018-10-17T06:38:00.429Z,39.38
2018-10-17T06:39:00.394Z,39.38
2018-10-17T06:40:53.328Z,39.38
2018-10-17T06:41:53.249Z,39.38
2018-10-17T06:43:46.212Z,45.00
2018-10-17T06:44:46.120Z,45.00
2018-10-17T06:46:39.002Z,45.00
2018-10-17T06:47:38.982Z,45.00
2018-10-17T06:49:31.866Z,45.00
2018-10-17T06:50:31.840Z,45.00
2018-10-17T06:52:24.731Z,50.63
2018-10-17T06:53:24.705Z,50.63
2018-10-17T06:55:17.696Z,50.63
2018-10-17T06:56:17.557Z,50.63
2018-10-17T06:58:10.452Z,56.25
2018-10-17T06:59:10.501Z,56.25
2018-10-17T07:01:03.878Z,56.25
2018-10-17T07:02:03.793Z,56.25
2018-10-17T07:03:57.167Z,56.25
2018-10-17T07:04:57.144Z,56.25
2018-10-17T07:06:50.037Z,61.88
2018-10-17T07:07:50.011Z,61.88
2018-10-17T07:09:43.396Z,67.50
2018-10-17T07:10:43.361Z,67.50
2018-10-17T07:12:36.257Z,67.50
2018-10-17T07:13:36.236Z,73.13
2018-10-17T07:15:29.688Z,73.13
2018-10-17T07:16:29.581Z,73.13
2018-10-17T07:18:22.680Z,73.13
2018-10-17T07:19:22.453Z,73.13
2018-10-17T07:21:15.334Z,73.13
2018-10-17T07:22:15.314Z,78.75
2018-10-17T07:24:08.690Z,84.38
2018-10-17T07:25:08.719Z,84.38
2018-10-17T07:27:01.597Z,84.38
2018-10-17T07:28:01.564Z,84.38
2018-10-17T07:29:55.026Z,84.38
2018-10-17T07:30:54.955Z,84.38
2018-10-17T07:32:47.818Z,84.38
2018-10-17T07:33:47.807Z,90.00
2018-10-17T07:35:40.760Z,95.63
2018-10-17T07:36:40.665Z,95.63
2018-10-17T07:38:33.554Z,106.88
2018-10-17T07:39:33.526Z,106.88
2018-10-17T07:41:26.917Z,106.88
2018-10-17T07:42:26.886Z,95.63
2018-10-17T07:44:19.782Z,106.88
2018-10-17T07:45:19.799Z,112.50
2018-10-17T07:47:12.644Z,112.50
2018-10-17T07:48:12.688Z,112.50
2018-10-17T07:50:06.010Z,106.88
2018-10-17T07:51:05.978Z,112.50
2018-10-17T07:52:58.890Z,112.50
2018-10-17T07:53:58.865Z,106.88
2018-10-17T07:55:51.741Z,106.88
2018-10-17T07:56:51.712Z,106.88
2018-10-17T07:58:44.598Z,106.88
2018-10-17T07:59:44.639Z,112.50
2018-10-17T08:01:37.966Z,112.50
2018-10-17T08:02:37.939Z,112.50
2018-10-17T08:04:31.404Z,112.50
2018-10-17T08:05:30.802Z,112.50
2018-10-17T08:07:23.717Z,112.50
2018-10-17T08:08:23.672Z,118.13
2018-10-17T08:10:16.564Z,118.13
2018-10-17T08:11:16.535Z,118.13
2018-10-17T08:13:09.923Z,118.13
2018-10-17T08:14:09.911Z,118.13
2018-10-17T08:16:02.792Z,118.13
2018-10-17T08:17:02.771Z,118.13
2018-10-17T08:18:55.665Z,118.13
2018-10-17T08:19:55.641Z,118.13
2018-10-17T08:21:48.539Z,118.13
2018-10-17T08:22:48.507Z,118.13
2018-10-17T08:24:41.400Z,118.13
2018-10-17T08:25:41.387Z,118.13
2018-10-17T08:27:34.826Z,118.13
2018-10-17T08:28:34.737Z,112.50
2018-10-17T08:30:28.118Z,118.13
2018-10-17T08:31:28.103Z,112.50
2018-10-17T08:33:20.996Z,112.50
2018-10-17T08:34:20.992Z,106.88
2018-10-17T08:36:14.539Z,112.50
2018-10-17T08:37:14.731Z,112.50
2018-10-17T08:39:07.228Z,112.50
2018-10-17T08:40:07.206Z,106.88
2018-10-17T08:42:00.100Z,106.88
2018-10-17T08:43:00.074Z,106.88
2018-10-17T08:44:53.540Z,106.88
2018-10-17T08:45:52.949Z,106.88
2018-10-17T08:47:45.838Z,106.88
2018-10-17T08:48:45.816Z,101.25
2018-10-17T08:50:39.313Z,106.88
2018-10-17T08:51:39.178Z,101.25
2018-10-17T08:53:32.065Z,101.25
2018-10-17T08:54:32.043Z,101.25
2018-10-17T08:56:24.945Z,101.25
2018-10-17T08:57:24.924Z,101.25
2018-10-17T08:59:17.809Z,101.25
2018-10-17T09:00:17.788Z,101.25
2018-10-17T09:02:10.754Z,101.25
2018-10-17T09:03:10.662Z,106.88
2018-10-17T09:05:04.049Z,106.88
2018-10-17T09:06:04.049Z,106.88
2018-10-17T09:07:57.516Z,101.25
2018-10-17T09:08:57.387Z,101.25
2018-10-17T09:10:50.295Z,101.25
2018-10-17T09:11:50.250Z,101.25
2018-10-17T09:13:43.643Z,101.25
2018-10-17T09:14:43.620Z,101.25
2018-10-17T09:16:36.567Z,101.25
2018-10-17T09:17:36.496Z,101.25
2018-10-17T09:19:30.006Z,101.25
2018-10-17T09:20:30.070Z,101.25
2018-10-17T09:22:23.010Z,101.25
2018-10-17T09:23:22.749Z,101.25
2018-10-17T09:25:15.728Z,106.88
2018-10-17T09:26:15.617Z,106.88
2018-10-17T09:28:09.018Z,106.88
2018-10-17T09:29:08.997Z,101.25
2018-10-17T09:31:01.873Z,101.25
2018-10-17T09:32:01.850Z,101.25
2018-10-17T09:33:54.793Z,106.88
2018-10-17T09:34:54.728Z,106.88
2018-10-17T09:36:48.115Z,106.88
2018-10-17T09:37:48.083Z,106.88
2018-10-17T09:39:40.987Z,106.88
2018-10-17T09:40:40.966Z,106.88
2018-10-17T09:42:33.868Z,106.88
2018-10-17T09:43:33.836Z,112.50
2018-10-17T09:45:26.806Z,106.88
2018-10-17T09:46:26.721Z,106.88
2018-10-17T09:48:19.633Z,106.88
2018-10-17T09:49:19.591Z,101.25
2018-10-17T09:51:12.488Z,101.25
2018-10-17T09:52:12.497Z,101.25
2018-10-17T09:54:05.895Z,106.88
2018-10-17T09:55:05.833Z,101.25
2018-10-17T09:56:58.745Z,101.25
2018-10-17T09:57:58.789Z,101.25
2018-10-17T09:59:51.650Z,95.63
2018-10-17T10:00:51.600Z,101.25
2018-10-17T10:02:44.493Z,95.63
2018-10-17T10:03:44.477Z,95.63
2018-10-17T10:05:37.359Z,95.63
2018-10-17T10:06:37.387Z,95.63
2018-10-17T10:08:30.752Z,95.63
2018-10-17T10:09:30.724Z,95.63
2018-10-17T10:11:23.637Z,95.63
2018-10-17T10:12:23.623Z,95.63
2018-10-17T10:14:16.514Z,95.63
2018-10-17T10:15:16.482Z,95.63
2018-10-17T10:17:09.491Z,95.63
2018-10-17T10:18:09.358Z,95.63
2018-10-17T10:20:02.271Z,95.63
2018-10-17T10:21:02.245Z,95.63
2018-10-17T10:22:55.711Z,95.63
2018-10-17T10:23:55.644Z,95.63
2018-10-17T10:25:49.092Z,95.63
2018-10-17T10:26:49.035Z,95.63
2018-10-17T10:28:41.948Z,95.63
2018-10-17T10:29:41.921Z,95.63
2018-10-17T10:31:35.260Z,95.63
2018-10-17T10:32:35.242Z,95.63
2018-10-17T10:34:28.132Z,90.00
2018-10-17T10:35:28.114Z,90.00
2018-10-17T10:37:22.061Z,90.00
2018-10-17T10:38:21.491Z,90.00
2018-10-17T10:40:14.453Z,90.00
2018-10-17T10:41:14.371Z,90.00
2018-10-17T10:43:07.756Z,90.00
2018-10-17T10:44:07.793Z,90.00
2018-10-17T10:46:00.631Z,84.38
2018-10-17T10:47:00.626Z,84.38
2018-10-17T10:48:54.072Z,84.38
2018-10-17T10:49:54.086Z,84.38
2018-10-17T10:51:46.912Z,78.75
2018-10-17T10:52:46.919Z,78.75
2018-10-17T10:54:39.780Z,84.38
2018-10-17T10:55:39.752Z,84.38
2018-10-17T10:57:32.648Z,84.38
2018-10-17T10:58:32.857Z,84.38
2018-10-17T11:00:25.534Z,78.75
2018-10-17T11:01:25.509Z,78.75
2018-10-17T11:03:18.948Z,78.75
2018-10-17T11:04:18.394Z,78.75
2018-10-17T11:06:11.798Z,78.75
2018-10-17T11:07:11.762Z,73.13
2018-10-17T11:09:04.893Z,73.13
2018-10-17T11:10:04.875Z,73.13
2018-10-17T11:11:57.765Z,73.13
2018-10-17T11:12:57.745Z,73.13
2018-10-17T11:14:51.309Z,78.75
2018-10-17T11:15:51.113Z,78.75
2018-10-17T11:17:44.025Z,78.75
2018-10-17T11:18:43.989Z,78.75
2018-10-17T11:20:37.398Z,78.75
2018-10-17T11:21:37.365Z,73.13
2018-10-17T11:23:30.270Z,73.13
2018-10-17T11:24:30.238Z,73.13
2018-10-17T11:26:23.142Z,78.75
2018-10-17T11:27:23.120Z,78.75
2018-10-17T11:29:16.079Z,78.75
2018-10-17T11:30:15.989Z,78.75
2018-10-17T11:32:09.400Z,78.75
2018-10-17T11:33:09.410Z,78.75
2018-10-17T11:35:02.308Z,78.75
2018-10-17T11:36:02.253Z,78.75
2018-10-17T11:37:55.214Z,73.13
2018-10-17T11:38:55.175Z,73.13
2018-10-17T11:40:48.543Z,73.13
2018-10-17T11:41:48.506Z,78.75
2018-10-17T11:43:41.405Z,78.75
2018-10-17T11:44:41.385Z,78.75
2018-10-17T11:46:34.282Z,78.75
2018-10-17T11:47:34.289Z,78.75
2018-10-17T11:49:27.662Z,78.75
2018-10-17T11:50:27.646Z,78.75
2018-10-17T11:52:21.128Z,78.75
2018-10-17T11:53:20.529Z,78.75
2018-10-17T11:55:13.917Z,78.75
2018-10-17T11:56:13.910Z,78.75
2018-10-17T11:58:07.321Z,84.38
2018-10-17T11:59:07.319Z,84.38
2018-10-17T12:01:00.698Z,84.38
2018-10-17T12:02:00.677Z,84.38
2018-10-17T12:03:53.701Z,84.38
2018-10-17T12:04:53.802Z,84.38
2018-10-17T12:06:46.942Z,78.75
2018-10-17T12:07:46.927Z,78.75
2018-10-17T12:09:39.826Z,78.75
2018-10-17T12:10:39.807Z,78.75
2018-10-17T12:12:32.714Z,84.38
2018-10-17T12:13:32.690Z,84.38
2018-10-17T12:15:26.081Z,84.38
2018-10-17T12:16:26.060Z,84.38
2018-10-17T12:18:19.453Z,90.00
2018-10-17T12:19:19.437Z,90.00
2018-10-17T12:21:12.460Z,90.00
2018-10-17T12:22:12.352Z,84.38
2018-10-17T12:24:05.259Z,84.38
2018-10-17T12:25:05.202Z,78.75
2018-10-17T12:26:58.118Z,78.75
2018-10-17T12:27:58.241Z,78.75
2018-10-17T12:29:51.510Z,73.13
2018-10-17T12:30:51.448Z,73.13
2018-10-17T12:32:44.839Z,73.13
2018-10-17T12:33:44.828Z,73.13
2018-10-17T12:35:37.717Z,73.13
2018-10-17T12:36:37.700Z,73.13
2018-10-17T12:38:30.602Z,73.13
2018-10-17T12:39:30.711Z,73.13
2018-10-17T12:41:23.507Z,73.13
2018-10-17T12:42:23.463Z,73.13
2018-10-17T12:44:16.945Z,73.13
2018-10-17T12:45:16.932Z,67.50
2018-10-17T12:47:09.791Z,67.50
2018-10-17T12:48:09.735Z,67.50
2018-10-17T12:50:02.653Z,67.50
2018-10-17T12:51:02.621Z,67.50
2018-10-17T12:52:56.084Z,73.13
2018-10-17T12:53:55.994Z,67.50
2018-10-17T12:55:48.901Z,73.13
2018-10-17T12:56:48.877Z,73.13
2018-10-17T12:58:41.779Z,73.13
2018-10-17T12:59:41.761Z,73.13
2018-10-17T13:01:35.732Z,73.13
2018-10-17T13:02:35.132Z,73.13
2018-10-17T13:04:28.529Z,73.13
2018-10-17T13:05:28.509Z,73.13
2018-10-17T13:07:21.408Z,73.13
2018-10-17T13:08:21.394Z,73.13
2018-10-17T13:10:14.796Z,73.13
2018-10-17T13:11:14.858Z,73.13
2018-10-17T13:13:07.684Z,73.13
2018-10-17T13:14:07.635Z,73.13
2018-10-17T13:16:01.039Z,73.13
2018-10-17T13:17:01.024Z,73.13
2018-10-17T13:18:54.483Z,73.13
2018-10-17T13:19:54.399Z,73.13
2018-10-17T13:21:47.291Z,73.13
2018-10-17T13:22:47.269Z,73.13
2018-10-17T13:24:40.771Z,67.50
2018-10-17T13:25:40.656Z,67.50
2018-10-17T13:27:33.563Z,67.50
2018-10-17T13:28:33.535Z,67.50
2018-10-17T13:30:26.438Z,67.50
2018-10-17T13:31:26.416Z,67.50
2018-10-17T13:33:19.327Z,67.50
2018-10-17T13:34:19.393Z,67.50
2018-10-17T13:36:12.219Z,67.50
2018-10-17T13:37:12.260Z,67.50
2018-10-17T13:39:05.082Z,67.50
2018-10-17T13:40:05.065Z,67.50
2018-10-17T13:41:58.005Z,67.50
2018-10-17T13:42:57.952Z,67.50
2018-10-17T13:44:50.853Z,67.50
2018-10-17T13:45:50.833Z,67.50
2018-10-17T13:47:44.300Z,67.50
2018-10-17T13:48:44.270Z,67.50
2018-10-17T13:50:37.590Z,67.50
2018-10-17T13:51:37.572Z,67.50
2018-10-17T13:53:30.479Z,67.50
2018-10-17T13:54:30.501Z,67.50
2018-10-17T13:56:23.758Z,73.13
2018-10-17T13:57:23.341Z,73.13
2018-10-17T13:59:16.377Z,73.13
2018-10-17T14:00:16.222Z,73.13
2018-10-17T14:02:09.622Z,78.75
2018-10-17T14:03:09.603Z,78.75
2018-10-17T14:05:02.510Z,78.75
2018-10-17T14:06:02.500Z,78.75
2018-10-17T14:07:55.887Z,78.75
2018-10-17T14:08:55.911Z,78.75
2018-10-17T14:10:48.767Z,73.13
2018-10-17T14:11:48.747Z,73.13
2018-10-17T14:13:41.668Z,73.13
2018-10-17T14:14:41.625Z,73.13
2018-10-17T14:16:34.988Z,67.50
2018-10-17T14:17:34.934Z,67.50
2018-10-17T14:19:28.326Z,67.50
2018-10-17T14:20:28.306Z,67.50
2018-10-17T14:22:21.203Z,61.88
2018-10-17T14:23:21.213Z,61.88
2018-10-17T14:25:14.094Z,61.88
2018-10-17T14:26:14.071Z,61.88
2018-10-17T14:28:06.982Z,61.88
2018-10-17T14:29:06.951Z,67.50
2018-10-17T14:30:59.854Z,67.50
2018-10-17T14:31:59.832Z,67.50
2018-10-17T14:33:52.739Z,67.50
2018-10-17T14:34:52.719Z,67.50
2018-10-17T14:36:46.116Z,67.50
2018-10-17T14:37:46.199Z,67.50
2018-10-17T14:39:39.525Z,67.50
2018-10-17T14:40:39.527Z,67.50
2018-10-17T14:42:32.381Z,67.50
2018-10-17T14:43:32.372Z,67.50
2018-10-17T14:45:25.283Z,67.50
2018-10-17T14:46:25.250Z,61.88
2018-10-17T14:48:18.215Z,56.25
2018-10-17T14:49:18.124Z,56.25
2018-10-17T14:51:11.078Z,50.63
2018-10-17T14:52:11.005Z,50.63
2018-10-17T14:54:04.400Z,50.63
2018-10-17T14:55:04.382Z,50.63
2018-10-17T14:56:57.331Z,50.63
2018-10-17T14:57:57.259Z,45.00
2018-10-17T14:59:50.655Z,45.00
2018-10-17T15:00:50.633Z,45.00
2018-10-17T15:02:44.039Z,45.00
2018-10-17T15:03:44.008Z,45.00
2018-10-17T15:05:36.914Z,45.00
2018-10-17T15:06:36.893Z,45.00
2018-10-17T15:08:29.797Z,45.00
2018-10-17T15:09:29.774Z,45.00
2018-10-17T15:11:22.815Z,45.00
2018-10-17T15:12:22.653Z,39.38
2018-10-17T15:14:15.555Z,39.38
2018-10-17T15:15:15.665Z,39.38
2018-10-17T15:17:08.442Z,39.38
2018-10-17T15:18:08.490Z,39.38
2018-10-17T15:20:01.825Z,39.38
2018-10-17T15:21:01.837Z,39.38
2018-10-17T15:22:55.190Z,39.38
2018-10-17T15:23:55.204Z,39.38
2018-10-17T15:25:48.069Z,33.75
2018-10-17T15:26:48.047Z,33.75
2018-10-17T15:28:40.958Z,33.75
2018-10-17T15:29:40.926Z,33.75
2018-10-17T15:31:33.828Z,33.75
2018-10-17T15:32:33.807Z,33.75
2018-10-17T15:34:26.722Z,33.75
2018-10-17T15:35:26.689Z,33.75
2018-10-17T15:37:19.592Z,33.75
2018-10-17T15:38:19.569Z,28.13
2018-10-17T15:40:12.476Z,28.13
2018-10-17T15:41:12.454Z,28.13
2018-10-17T15:43:05.923Z,28.13
2018-10-17T15:44:05.822Z,28.13
2018-10-17T15:45:58.723Z,28.13
2018-10-17T15:46:58.705Z,28.13
2018-10-17T15:48:51.605Z,28.13
2018-10-17T15:49:51.591Z,22.50
2018-10-17T15:51:44.969Z,22.50
2018-10-17T15:52:44.955Z,22.50
2018-10-17T15:54:37.848Z,22.50
2018-10-17T15:55:37.832Z,22.50
2018-10-17T15:57:31.231Z,22.50
2018-10-17T15:58:31.219Z,22.50
2018-10-17T16:00:24.620Z,16.88
2018-10-17T16:01:24.593Z,16.88
2018-10-17T16:03:17.494Z,16.88
2018-10-17T16:04:17.469Z,16.88
2018-10-17T16:06:10.933Z,16.88
2018-10-17T16:07:10.838Z,16.88
2018-10-17T16:09:03.753Z,16.88
2018-10-17T16:10:03.735Z,11.25
2018-10-17T16:11:56.654Z,11.25
2018-10-17T16:12:56.608Z,11.25
2018-10-17T16:14:49.503Z,11.25
2018-10-17T16:15:49.492Z,11.25
2018-10-17T16:17:42.385Z,11.25
2018-10-17T16:18:42.372Z,5.63
2018-10-17T16:20:35.259Z,5.63
2018-10-17T16:21:35.234Z,5.63
2018-10-17T16:23:28.135Z,5.63
2018-10-17T16:24:28.113Z,5.63
2018-10-17T16:26:21.513Z,5.63
2018-10-17T16:27:21.484Z,5.63
2018-10-17T16:29:14.875Z,5.63
2018-10-17T16:30:15.045Z,0.00
2018-10-17T16:32:07.822Z,0.00
2018-10-17T16:33:07.722Z,0.00
2018-10-17T16:35:01.133Z,0.00
2018-10-17T16:36:01.143Z,0.00
2018-10-17T16:37:54.047Z,0.00
2018-10-17T16:38:53.976Z,0.00
2018-10-17T16:40:47.383Z,0.00
2018-10-17T16:41:47.356Z,0.00
2018-10-17T16:43:40.258Z,0.00
2018-10-17T16:44:40.268Z,0.00
2018-10-17T16:46:33.210Z,0.00
2018-10-17T16:47:33.130Z,0.00
2018-10-17T16:49:26.029Z,0.00
2018-10-17T16:50:26.070Z,0.00
2018-10-17T16:52:18.884Z,0.00
2018-10-17T16:53:18.864Z,0.00
2018-10-17T16:55:11.765Z,0.00
2018-10-17T16:56:11.725Z,0.00
2018-10-17T16:58:04.722Z,0.00
2018-10-17T16:59:04.621Z,0.00
2018-10-17T17:00:57.518Z,0.00
2018-10-17T17:01:57.500Z,0.00
2018-10-17T17:03:50.385Z,0.00
2018-10-17T17:04:50.369Z,0.00
2018-10-17T17:06:43.762Z,0.00
2018-10-17T17:07:43.736Z,0.00
2018-10-17T17:09:37.124Z,0.00
2018-10-17T17:10:37.105Z,0.00
2018-10-17T17:12:30.001Z,0.00
2018-10-17T17:13:29.976Z,0.00
2018-10-17T17:15:22.875Z,0.00
2018-10-17T17:16:22.944Z,0.00
2018-10-17T17:18:15.846Z,0.00
2018-10-17T17:19:15.738Z,0.00
2018-10-17T17:21:08.654Z,0.00
2018-10-17T17:22:08.606Z,0.00
2018-10-17T17:24:02.046Z,0.00
2018-10-17T17:25:01.973Z,0.00
2018-10-17T17:26:55.417Z,0.00
2018-10-17T17:27:55.336Z,0.00
2018-10-17T17:29:48.820Z,0.00
2018-10-17T17:30:48.703Z,0.00
2018-10-17T17:32:42.090Z,0.00
2018-10-17T17:33:42.061Z,0.00
2018-10-17T17:35:35.532Z,0.00
2018-10-17T17:36:34.959Z,0.00
2018-10-17T17:38:28.341Z,0.00
2018-10-17T17:39:28.317Z,0.00
2018-10-17T17:41:21.211Z,0.00
2018-10-17T17:42:21.205Z,0.00
2018-10-17T17:44:14.095Z,0.00
2018-10-17T17:45:14.068Z,0.00
2018-10-17T17:47:06.992Z,0.00
2018-10-17T17:48:06.948Z,0.00
2018-10-17T17:49:59.924Z,0.00
2018-10-17T17:50:59.846Z,0.00
2018-10-17T17:52:52.722Z,0.00
2018-10-17T17:53:52.699Z,0.00
2018-10-17T17:55:45.594Z,0.00
2018-10-17T17:56:45.567Z,0.00
2018-10-17T17:58:38.638Z,0.00
2018-10-17T17:59:38.451Z,0.00
2018-10-17T18:01:31.340Z,0.00
2018-10-17T18:02:31.315Z,0.00
2018-10-17T18:04:24.330Z,0.00
2018-10-17T18:05:24.234Z,0.00
2018-10-17T18:07:17.623Z,0.00
2018-10-17T18:08:17.585Z,0.00
2018-10-17T18:10:10.997Z,0.00
2018-10-17T18:11:10.954Z,0.00
2018-10-17T18:13:03.847Z,0.00
2018-10-17T18:14:03.858Z,0.00
2018-10-17T18:15:56.723Z,0.00
2018-10-17T18:16:56.694Z,0.00
2018-10-17T18:18:49.594Z,0.00
2018-10-17T18:19:49.565Z,0.00
2018-10-17T18:21:42.587Z,0.00
2018-10-17T18:22:42.541Z,0.00
2018-10-17T18:24:35.438Z,0.00
2018-10-17T18:25:35.407Z,0.00
2018-10-17T18:27:28.361Z,0.00
2018-10-17T18:28:28.340Z,0.00
2018-10-17T18:30:21.185Z,0.00
2018-10-17T18:31:21.160Z,0.00
2018-10-17T18:33:14.054Z,0.00
2018-10-17T18:34:14.090Z,0.00
2018-10-17T18:36:06.934Z,0.00
2018-10-17T18:37:06.924Z,0.00
2018-10-17T18:38:59.815Z,0.00
2018-10-17T18:39:59.825Z,0.00
2018-10-17T18:41:52.672Z,0.00
2018-10-17T18:42:52.694Z,0.00
2018-10-17T18:44:45.626Z,0.00
2018-10-17T18:45:45.642Z,0.00
2018-10-17T18:47:38.428Z,0.00